Верхопенье

СКИДКИ НА СМАРТФОНЫ!

Карта отелей и гостиниц, располагающихся рядом с аэропортом Верхопенье :

Верхопенье Белгородская область 50° 55' 49.26" N, 36° 21' 37.188" E
Верхопенье Белгородская область 50° 55' 49.26" N, 36° 21' 37.188" E
Код аэродрома ИКАО
ZEC5
Код аэродрома RU
ЗЕЦ5
Координаты
N50.93035° E036.36033°
Превышение над уровнем моря
234
Основная полоса
13/31
Курс магнитный
129,7/309,7
Длина основной ВПП
425
Ширина основной ВПП
18
Покрытие основной ВПП
Твёрдое (асфальт)
Освещение ВПП
Нет
Тип: 
Аэродром
Класс аэродрома: 
Принадлежность: 
ГА
Статус: 
Недействующий
Сайт: 
E-mail аэродрома: 
Страна: 
Россия
Регион: 
Белгородская область
Город: 
Дополнительная информация: 
Бывшая площадка АХР.

Скидки на навигаторы!

Найти трансфер

С помощью этой формы Вы можете найти трансфер из аэропорта Верхопенье в город, аэропорт или вокзал:

Погода в аэропортах:

Авиационная погода в Тулча

Регион: 
Погода METAR: 
LRTC 072100Z AUTO 07001KT 5000 BR BKN009/// 05/02 Q1016
Время наблюдения
2022-12-07T21:00:00Z
Температура C
5.0
Точка росы
2.0
Направление ветра
70
Скорость ветра (узлы)
1
Метео видимость
3.11
Облачность
BKN
Нижняя граница облачности (футы)
900
Явления погоды
BR
Условия полета
IFR
BKN – значительная (рассеянная, разорванная) облачность;
BR – дымка (видимость от 1 до 9 км);

Авиационная погода в Пулково

Регион: 
Погода METAR: 
ULLI 072100Z 13005MPS 7000 -SHSN BKN017CB OVC033 M05/M09 Q1007 R10R/450545 NOSIG
Время наблюдения
2022-12-07T21:00:00Z
Температура C
-5.0
Точка росы
-9.0
Направление ветра
130
Скорость ветра (узлы)
10
Метео видимость
4.35
Облачность
BKN
OVC
Нижняя граница облачности (футы)
1700
3300
Явления погоды
-SHSN
Условия полета
MVFR
Аэропорт подробнее: 
BKN – значительная (рассеянная, разорванная) облачность; OVC – сплошная облачность;
-SHSN - слабый ливневой снег;

Авиационная погода в Усть-Каменогорске

Регион: 
Погода METAR: 
UASK 070500Z 27001MPS 1500 R30/1500 -SN BR BCFG BKN030 M25/M28 Q1039 TEMPO 0200 FZFG BKN002 RMK QFE753/1005
Время наблюдения
2022-12-07T05:00:00Z
Температура C
-25.0
Точка росы
-28.0
Направление ветра
270
Скорость ветра (узлы)
2
Метео видимость
0.93
Облачность
BKN
Нижняя граница облачности (футы)
3000
Явления погоды
BCFG -SN BR
Условия полета
LIFR
Аэропорт подробнее: 
BKN – значительная (рассеянная, разорванная) облачность;
FG – туман (небо не видно, температура воздуха выше нуля или ноль); -SN – слабый снег; BR – дымка (видимость от 1 до 9 км);

Авиационная погода в Пскове

Регион: 
Погода METAR: 
ULOO 072100Z 13005MPS 090V160 0550 0450NE R19/1100D +SN BKN003 OVC017 M05/M07 Q1003 R19/990334 NOSIG RMK QBB110 OBST OBSC QFE748
Время наблюдения
2022-12-07T21:00:00Z
Температура C
-5.0
Точка росы
-7.0
Направление ветра
130
Скорость ветра (узлы)
10
Метео видимость
0.34
Облачность
BKN
OVC
Нижняя граница облачности (футы)
300
1700
Явления погоды
+SN
Условия полета
LIFR
BKN – значительная (рассеянная, разорванная) облачность; OVC – сплошная облачность;
+SN – сильный снег;